sensor_id;sensor_type;location;lat;lon;timestamp;P1;durP1;ratioP1;P2;durP2;ratioP2
19861;SDS011;10093;48.148;8.542;2023-05-07T00:02:25;3.63;;;3.28;;
19861;SDS011;10093;48.148;8.542;2023-05-07T00:04:51;4.28;;;3.67;;
19861;SDS011;10093;48.148;8.542;2023-05-07T00:07:17;5.78;;;4.07;;
19861;SDS011;10093;48.148;8.542;2023-05-07T00:09:43;9.02;;;4.60;;
19861;SDS011;10093;48.148;8.542;2023-05-07T00:12:09;7.80;;;4.25;;
19861;SDS011;10093;48.148;8.542;2023-05-07T00:14:34;7.43;;;4.10;;
19861;SDS011;10093;48.148;8.542;2023-05-07T00:17:00;8.57;;;4.32;;
19861;SDS011;10093;48.148;8.542;2023-05-07T00:19:26;7.43;;;4.53;;
19861;SDS011;10093;48.148;8.542;2023-05-07T00:21:51;5.90;;;4.25;;
19861;SDS011;10093;48.148;8.542;2023-05-07T00:24:18;12.00;;;4.57;;
19861;SDS011;10093;48.148;8.542;2023-05-07T00:26:44;7.68;;;4.05;;
19861;SDS011;10093;48.148;8.542;2023-05-07T00:29:10;5.45;;;3.47;;
19861;SDS011;10093;48.148;8.542;2023-05-07T00:31:36;5.60;;;4.00;;
19861;SDS011;10093;48.148;8.542;2023-05-07T00:34:01;5.88;;;3.97;;
19861;SDS011;10093;48.148;8.542;2023-05-07T00:36:27;6.13;;;4.68;;
19861;SDS011;10093;48.148;8.542;2023-05-07T00:38:53;5.60;;;3.55;;
19861;SDS011;10093;48.148;8.542;2023-05-07T00:41:20;5.25;;;3.42;;
19861;SDS011;10093;48.148;8.542;2023-05-07T00:43:46;3.42;;;3.15;;
19861;SDS011;10093;48.148;8.542;2023-05-07T00:46:12;4.85;;;3.33;;
19861;SDS011;10093;48.148;8.542;2023-05-07T00:48:38;6.38;;;3.45;;
19861;SDS011;10093;48.148;8.542;2023-05-07T00:51:05;5.47;;;3.45;;
19861;SDS011;10093;48.148;8.542;2023-05-07T00:53:30;3.42;;;3.08;;
19861;SDS011;10093;48.148;8.542;2023-05-07T00:55:56;4.82;;;3.55;;
19861;SDS011;10093;48.148;8.542;2023-05-07T00:58:22;4.60;;;3.88;;
19861;SDS011;10093;48.148;8.542;2023-05-07T01:00:48;7.10;;;3.90;;
19861;SDS011;10093;48.148;8.542;2023-05-07T01:03:15;6.85;;;4.10;;
19861;SDS011;10093;48.148;8.542;2023-05-07T01:05:41;5.75;;;3.92;;
19861;SDS011;10093;48.148;8.542;2023-05-07T01:08:09;5.10;;;3.60;;
19861;SDS011;10093;48.148;8.542;2023-05-07T01:10:36;4.50;;;3.40;;
19861;SDS011;10093;48.148;8.542;2023-05-07T01:13:02;8.45;;;4.30;;
19861;SDS011;10093;48.148;8.542;2023-05-07T01:15:28;6.95;;;4.28;;
19861;SDS011;10093;48.148;8.542;2023-05-07T01:17:54;6.45;;;3.72;;
19861;SDS011;10093;48.148;8.542;2023-05-07T01:20:21;4.25;;;3.63;;
19861;SDS011;10093;48.148;8.542;2023-05-07T01:22:47;6.13;;;3.88;;
19861;SDS011;10093;48.148;8.542;2023-05-07T01:25:14;7.30;;;3.75;;
19861;SDS011;10093;48.148;8.542;2023-05-07T01:27:41;5.60;;;4.10;;
19861;SDS011;10093;48.148;8.542;2023-05-07T01:30:07;3.72;;;3.42;;
19861;SDS011;10093;48.148;8.542;2023-05-07T01:32:43;9.25;;;4.13;;
19861;SDS011;10093;48.148;8.542;2023-05-07T01:35:14;5.22;;;3.88;;
19861;SDS011;10093;48.148;8.542;2023-05-07T01:37:44;5.53;;;3.20;;
19861;SDS011;10093;48.148;8.542;2023-05-07T01:40:10;3.65;;;3.17;;
19861;SDS011;10093;48.148;8.542;2023-05-07T01:42:36;4.22;;;3.17;;
19861;SDS011;10093;48.148;8.542;2023-05-07T01:45:02;5.10;;;3.30;;
19861;SDS011;10093;48.148;8.542;2023-05-07T01:47:28;8.20;;;4.13;;
19861;SDS011;10093;48.148;8.542;2023-05-07T01:49:54;6.05;;;3.95;;
19861;SDS011;10093;48.148;8.542;2023-05-07T01:52:20;7.40;;;4.57;;
19861;SDS011;10093;48.148;8.542;2023-05-07T01:54:46;9.48;;;4.95;;
19861;SDS011;10093;48.148;8.542;2023-05-07T01:57:12;5.97;;;5.00;;
19861;SDS011;10093;48.148;8.542;2023-05-07T01:59:37;6.80;;;4.72;;
19861;SDS011;10093;48.148;8.542;2023-05-07T02:02:03;5.70;;;4.50;;
19861;SDS011;10093;48.148;8.542;2023-05-07T02:04:29;7.50;;;4.70;;
19861;SDS011;10093;48.148;8.542;2023-05-07T02:06:54;7.95;;;4.40;;
19861;SDS011;10093;48.148;8.542;2023-05-07T02:09:20;10.00;;;4.97;;
19861;SDS011;10093;48.148;8.542;2023-05-07T02:11:47;7.35;;;4.60;;
19861;SDS011;10093;48.148;8.542;2023-05-07T02:14:12;9.25;;;4.85;;
19861;SDS011;10093;48.148;8.542;2023-05-07T02:16:38;6.65;;;4.35;;
19861;SDS011;10093;48.148;8.542;2023-05-07T02:19:03;10.82;;;5.03;;
19861;SDS011;10093;48.148;8.542;2023-05-07T02:21:30;6.40;;;4.70;;
19861;SDS011;10093;48.148;8.542;2023-05-07T02:23:55;6.07;;;4.03;;
19861;SDS011;10093;48.148;8.542;2023-05-07T02:26:21;9.60;;;4.90;;
19861;SDS011;10093;48.148;8.542;2023-05-07T02:28:46;5.47;;;4.53;;
19861;SDS011;10093;48.148;8.542;2023-05-07T02:31:12;7.95;;;5.45;;
19861;SDS011;10093;48.148;8.542;2023-05-07T02:33:38;7.07;;;4.38;;
19861;SDS011;10093;48.148;8.542;2023-05-07T02:36:10;6.75;;;4.25;;
19861;SDS011;10093;48.148;8.542;2023-05-07T02:38:36;10.18;;;3.88;;
19861;SDS011;10093;48.148;8.542;2023-05-07T02:41:02;7.05;;;4.45;;
19861;SDS011;10093;48.148;8.542;2023-05-07T02:43:27;6.85;;;4.60;;
19861;SDS011;10093;48.148;8.542;2023-05-07T02:46:07;6.47;;;4.60;;
19861;SDS011;10093;48.148;8.542;2023-05-07T02:48:33;5.03;;;4.25;;
19861;SDS011;10093;48.148;8.542;2023-05-07T02:51:00;7.72;;;4.00;;
19861;SDS011;10093;48.148;8.542;2023-05-07T02:53:26;8.85;;;4.32;;
19861;SDS011;10093;48.148;8.542;2023-05-07T02:55:52;6.55;;;4.13;;
19861;SDS011;10093;48.148;8.542;2023-05-07T02:58:18;9.80;;;4.38;;
19861;SDS011;10093;48.148;8.542;2023-05-07T03:00:44;6.05;;;4.50;;
19861;SDS011;10093;48.148;8.542;2023-05-07T03:03:10;8.05;;;4.78;;
19861;SDS011;10093;48.148;8.542;2023-05-07T03:05:36;9.20;;;5.65;;
19861;SDS011;10093;48.148;8.542;2023-05-07T03:08:02;6.65;;;5.15;;
19861;SDS011;10093;48.148;8.542;2023-05-07T03:10:28;7.03;;;5.05;;
19861;SDS011;10093;48.148;8.542;2023-05-07T03:12:54;6.90;;;5.18;;
19861;SDS011;10093;48.148;8.542;2023-05-07T03:15:20;8.65;;;5.05;;
19861;SDS011;10093;48.148;8.542;2023-05-07T03:17:46;9.57;;;5.38;;
19861;SDS011;10093;48.148;8.542;2023-05-07T03:20:12;6.47;;;5.13;;
19861;SDS011;10093;48.148;8.542;2023-05-07T03:22:38;7.68;;;4.88;;
19861;SDS011;10093;48.148;8.542;2023-05-07T03:25:04;7.70;;;4.95;;
19861;SDS011;10093;48.148;8.542;2023-05-07T03:27:30;7.07;;;4.93;;
19861;SDS011;10093;48.148;8.542;2023-05-07T03:29:56;6.63;;;5.25;;
19861;SDS011;10093;48.148;8.542;2023-05-07T03:32:21;9.05;;;4.70;;
19861;SDS011;10093;48.148;8.542;2023-05-07T03:34:47;5.07;;;4.63;;
19861;SDS011;10093;48.148;8.542;2023-05-07T03:37:13;6.80;;;4.50;;
19861;SDS011;10093;48.148;8.542;2023-05-07T03:39:38;9.68;;;4.85;;
19861;SDS011;10093;48.148;8.542;2023-05-07T03:42:04;6.20;;;4.50;;
19861;SDS011;10093;48.148;8.542;2023-05-07T03:44:38;7.27;;;4.90;;
19861;SDS011;10093;48.148;8.542;2023-05-07T03:47:04;6.03;;;4.63;;
19861;SDS011;10093;48.148;8.542;2023-05-07T03:49:30;10.38;;;4.75;;
19861;SDS011;10093;48.148;8.542;2023-05-07T03:51:56;9.48;;;5.43;;
19861;SDS011;10093;48.148;8.542;2023-05-07T03:54:21;5.35;;;4.72;;
19861;SDS011;10093;48.148;8.542;2023-05-07T03:56:47;9.13;;;4.57;;
19861;SDS011;10093;48.148;8.542;2023-05-07T03:59:13;6.13;;;5.10;;
19861;SDS011;10093;48.148;8.542;2023-05-07T04:01:38;6.38;;;4.63;;
19861;SDS011;10093;48.148;8.542;2023-05-07T04:04:04;7.38;;;4.72;;
19861;SDS011;10093;48.148;8.542;2023-05-07T04:06:30;9.55;;;5.28;;
19861;SDS011;10093;48.148;8.542;2023-05-07T04:08:56;8.13;;;5.35;;
19861;SDS011;10093;48.148;8.542;2023-05-07T04:11:22;8.60;;;5.40;;
19861;SDS011;10093;48.148;8.542;2023-05-07T04:13:48;8.80;;;5.88;;
19861;SDS011;10093;48.148;8.542;2023-05-07T04:16:14;6.18;;;5.10;;
19861;SDS011;10093;48.148;8.542;2023-05-07T04:18:39;7.25;;;4.97;;
19861;SDS011;10093;48.148;8.542;2023-05-07T04:21:05;10.25;;;6.28;;
19861;SDS011;10093;48.148;8.542;2023-05-07T04:23:38;9.57;;;6.72;;
19861;SDS011;10093;48.148;8.542;2023-05-07T04:26:03;6.97;;;5.75;;
19861;SDS011;10093;48.148;8.542;2023-05-07T04:28:29;9.18;;;6.25;;
19861;SDS011;10093;48.148;8.542;2023-05-07T04:30:55;9.52;;;4.80;;
19861;SDS011;10093;48.148;8.542;2023-05-07T04:33:20;11.57;;;5.13;;
19861;SDS011;10093;48.148;8.542;2023-05-07T04:35:46;6.50;;;4.68;;
19861;SDS011;10093;48.148;8.542;2023-05-07T04:38:12;8.68;;;5.47;;
19861;SDS011;10093;48.148;8.542;2023-05-07T04:40:37;10.02;;;5.95;;
19861;SDS011;10093;48.148;8.542;2023-05-07T04:43:04;6.07;;;4.60;;
19861;SDS011;10093;48.148;8.542;2023-05-07T04:45:29;8.18;;;4.68;;
19861;SDS011;10093;48.148;8.542;2023-05-07T04:47:55;5.35;;;4.85;;
19861;SDS011;10093;48.148;8.542;2023-05-07T04:50:20;8.30;;;5.78;;
19861;SDS011;10093;48.148;8.542;2023-05-07T04:52:48;7.55;;;5.72;;
19861;SDS011;10093;48.148;8.542;2023-05-07T04:55:14;5.82;;;5.22;;
19861;SDS011;10093;48.148;8.542;2023-05-07T04:57:39;8.55;;;5.00;;
19861;SDS011;10093;48.148;8.542;2023-05-07T05:00:06;6.50;;;5.22;;
19861;SDS011;10093;48.148;8.542;2023-05-07T05:02:33;7.97;;;5.68;;
19861;SDS011;10093;48.148;8.542;2023-05-07T05:05:00;8.10;;;5.10;;
19861;SDS011;10093;48.148;8.542;2023-05-07T05:07:27;5.28;;;3.80;;
19861;SDS011;10093;48.148;8.542;2023-05-07T05:09:53;7.25;;;3.35;;
19861;SDS011;10093;48.148;8.542;2023-05-07T05:12:19;4.15;;;2.50;;
19861;SDS011;10093;48.148;8.542;2023-05-07T05:14:45;3.15;;;2.38;;
19861;SDS011;10093;48.148;8.542;2023-05-07T05:17:10;3.15;;;2.45;;
19861;SDS011;10093;48.148;8.542;2023-05-07T05:19:36;2.88;;;1.52;;
19861;SDS011;10093;48.148;8.542;2023-05-07T05:22:02;5.28;;;1.85;;
19861;SDS011;10093;48.148;8.542;2023-05-07T05:24:28;2.35;;;1.40;;
19861;SDS011;10093;48.148;8.542;2023-05-07T05:26:55;6.85;;;1.50;;
19861;SDS011;10093;48.148;8.542;2023-05-07T05:29:21;2.75;;;1.10;;
19861;SDS011;10093;48.148;8.542;2023-05-07T05:31:46;1.77;;;1.40;;
19861;SDS011;10093;48.148;8.542;2023-05-07T05:34:12;2.38;;;1.70;;
19861;SDS011;10093;48.148;8.542;2023-05-07T05:36:38;1.98;;;1.83;;
19861;SDS011;10093;48.148;8.542;2023-05-07T05:39:03;1.70;;;1.60;;
19861;SDS011;10093;48.148;8.542;2023-05-07T05:41:29;3.65;;;1.60;;
19861;SDS011;10093;48.148;8.542;2023-05-07T05:43:55;3.92;;;1.30;;
19861;SDS011;10093;48.148;8.542;2023-05-07T05:46:21;5.45;;;1.67;;
19861;SDS011;10093;48.148;8.542;2023-05-07T05:48:46;1.70;;;1.27;;
19861;SDS011;10093;48.148;8.542;2023-05-07T05:51:12;1.92;;;1.38;;
19861;SDS011;10093;48.148;8.542;2023-05-07T05:53:37;2.55;;;1.48;;
19861;SDS011;10093;48.148;8.542;2023-05-07T05:56:03;1.88;;;1.52;;
19861;SDS011;10093;48.148;8.542;2023-05-07T05:58:29;4.13;;;1.50;;
19861;SDS011;10093;48.148;8.542;2023-05-07T06:00:55;3.03;;;1.60;;
19861;SDS011;10093;48.148;8.542;2023-05-07T06:03:21;2.35;;;1.63;;
19861;SDS011;10093;48.148;8.542;2023-05-07T06:05:47;2.83;;;1.38;;
19861;SDS011;10093;48.148;8.542;2023-05-07T06:08:12;1.77;;;1.50;;
19861;SDS011;10093;48.148;8.542;2023-05-07T06:10:38;6.90;;;1.73;;
19861;SDS011;10093;48.148;8.542;2023-05-07T06:13:04;2.20;;;1.38;;
19861;SDS011;10093;48.148;8.542;2023-05-07T06:15:30;1.92;;;1.27;;
19861;SDS011;10093;48.148;8.542;2023-05-07T06:17:55;1.92;;;1.45;;
19861;SDS011;10093;48.148;8.542;2023-05-07T06:20:22;1.30;;;1.20;;
19861;SDS011;10093;48.148;8.542;2023-05-07T06:22:48;1.73;;;1.42;;
19861;SDS011;10093;48.148;8.542;2023-05-07T06:25:14;4.45;;;1.17;;
19861;SDS011;10093;48.148;8.542;2023-05-07T06:27:39;1.33;;;1.20;;
19861;SDS011;10093;48.148;8.542;2023-05-07T06:30:05;2.67;;;1.35;;
19861;SDS011;10093;48.148;8.542;2023-05-07T06:32:32;2.22;;;1.30;;
19861;SDS011;10093;48.148;8.542;2023-05-07T06:34:57;4.03;;;1.80;;
19861;SDS011;10093;48.148;8.542;2023-05-07T06:37:23;3.05;;;1.40;;
19861;SDS011;10093;48.148;8.542;2023-05-07T06:39:49;2.78;;;1.35;;
19861;SDS011;10093;48.148;8.542;2023-05-07T06:42:15;3.40;;;1.42;;
19861;SDS011;10093;48.148;8.542;2023-05-07T06:44:40;2.72;;;1.67;;
19861;SDS011;10093;48.148;8.542;2023-05-07T06:47:06;3.55;;;1.85;;
19861;SDS011;10093;48.148;8.542;2023-05-07T06:49:31;4.55;;;2.08;;
19861;SDS011;10093;48.148;8.542;2023-05-07T06:51:58;2.78;;;2.03;;
19861;SDS011;10093;48.148;8.542;2023-05-07T06:54:23;5.00;;;2.33;;
19861;SDS011;10093;48.148;8.542;2023-05-07T06:56:49;2.85;;;2.05;;
19861;SDS011;10093;48.148;8.542;2023-05-07T06:59:15;2.05;;;1.85;;
19861;SDS011;10093;48.148;8.542;2023-05-07T07:01:40;2.97;;;1.50;;
19861;SDS011;10093;48.148;8.542;2023-05-07T07:04:06;5.50;;;2.05;;
19861;SDS011;10093;48.148;8.542;2023-05-07T07:06:32;3.50;;;1.80;;
19861;SDS011;10093;48.148;8.542;2023-05-07T07:08:58;2.35;;;1.70;;
19861;SDS011;10093;48.148;8.542;2023-05-07T07:11:24;7.60;;;1.95;;
19861;SDS011;10093;48.148;8.542;2023-05-07T07:13:50;3.15;;;2.00;;
19861;SDS011;10093;48.148;8.542;2023-05-07T07:16:15;1.65;;;1.27;;
19861;SDS011;10093;48.148;8.542;2023-05-07T07:18:41;3.38;;;1.80;;
19861;SDS011;10093;48.148;8.542;2023-05-07T07:21:07;1.40;;;1.30;;
19861;SDS011;10093;48.148;8.542;2023-05-07T07:23:32;3.28;;;2.00;;
19861;SDS011;10093;48.148;8.542;2023-05-07T07:25:58;2.35;;;1.83;;
19861;SDS011;10093;48.148;8.542;2023-05-07T07:28:24;3.70;;;2.10;;
19861;SDS011;10093;48.148;8.542;2023-05-07T07:30:49;3.22;;;1.90;;
19861;SDS011;10093;48.148;8.542;2023-05-07T07:33:15;4.97;;;2.08;;
19861;SDS011;10093;48.148;8.542;2023-05-07T07:35:41;3.28;;;1.55;;
19861;SDS011;10093;48.148;8.542;2023-05-07T07:38:07;4.22;;;1.38;;
19861;SDS011;10093;48.148;8.542;2023-05-07T07:40:34;2.50;;;1.45;;
19861;SDS011;10093;48.148;8.542;2023-05-07T07:43:00;2.60;;;1.60;;
19861;SDS011;10093;48.148;8.542;2023-05-07T07:45:26;3.95;;;1.50;;
19861;SDS011;10093;48.148;8.542;2023-05-07T07:47:52;1.77;;;1.60;;
19861;SDS011;10093;48.148;8.542;2023-05-07T07:50:17;1.75;;;1.38;;
19861;SDS011;10093;48.148;8.542;2023-05-07T07:52:43;2.97;;;1.67;;
19861;SDS011;10093;48.148;8.542;2023-05-07T07:55:09;2.63;;;1.27;;
19861;SDS011;10093;48.148;8.542;2023-05-07T07:57:35;1.90;;;1.50;;
19861;SDS011;10093;48.148;8.542;2023-05-07T08:00:01;2.03;;;1.70;;
19861;SDS011;10093;48.148;8.542;2023-05-07T08:02:27;3.22;;;1.83;;
19861;SDS011;10093;48.148;8.542;2023-05-07T08:04:52;5.60;;;1.40;;
19861;SDS011;10093;48.148;8.542;2023-05-07T08:07:18;2.00;;;1.33;;
19861;SDS011;10093;48.148;8.542;2023-05-07T08:09:45;4.20;;;1.50;;
19861;SDS011;10093;48.148;8.542;2023-05-07T08:12:11;3.03;;;1.67;;
19861;SDS011;10093;48.148;8.542;2023-05-07T08:14:37;2.30;;;1.15;;
19861;SDS011;10093;48.148;8.542;2023-05-07T08:17:03;2.15;;;1.15;;
19861;SDS011;10093;48.148;8.542;2023-05-07T08:19:28;3.78;;;1.60;;
19861;SDS011;10093;48.148;8.542;2023-05-07T08:21:54;2.05;;;1.20;;
19861;SDS011;10093;48.148;8.542;2023-05-07T08:24:20;4.15;;;1.50;;
19861;SDS011;10093;48.148;8.542;2023-05-07T08:26:46;5.00;;;2.00;;
19861;SDS011;10093;48.148;8.542;2023-05-07T08:29:12;2.85;;;1.60;;
19861;SDS011;10093;48.148;8.542;2023-05-07T08:31:37;4.43;;;1.70;;
19861;SDS011;10093;48.148;8.542;2023-05-07T08:34:06;1.95;;;1.35;;
19861;SDS011;10093;48.148;8.542;2023-05-07T08:36:31;2.17;;;1.15;;
19861;SDS011;10093;48.148;8.542;2023-05-07T08:38:57;2.45;;;1.10;;
19861;SDS011;10093;48.148;8.542;2023-05-07T08:41:24;2.25;;;1.20;;
19861;SDS011;10093;48.148;8.542;2023-05-07T08:43:50;3.80;;;1.10;;
19861;SDS011;10093;48.148;8.542;2023-05-07T08:46:17;1.45;;;1.35;;
19861;SDS011;10093;48.148;8.542;2023-05-07T08:48:50;1.48;;;1.05;;
19861;SDS011;10093;48.148;8.542;2023-05-07T08:51:20;1.85;;;1.17;;
19861;SDS011;10093;48.148;8.542;2023-05-07T08:53:47;2.10;;;1.10;;
19861;SDS011;10093;48.148;8.542;2023-05-07T08:56:15;3.42;;;0.98;;
19861;SDS011;10093;48.148;8.542;2023-05-07T08:58:41;2.15;;;0.70;;
19861;SDS011;10093;48.148;8.542;2023-05-07T09:01:09;3.15;;;0.90;;
19861;SDS011;10093;48.148;8.542;2023-05-07T09:03:39;1.58;;;0.90;;
19861;SDS011;10093;48.148;8.542;2023-05-07T09:06:05;1.95;;;0.90;;
19861;SDS011;10093;48.148;8.542;2023-05-07T09:08:32;2.72;;;0.70;;
19861;SDS011;10093;48.148;8.542;2023-05-07T09:10:59;3.10;;;1.20;;
19861;SDS011;10093;48.148;8.542;2023-05-07T09:13:25;1.52;;;0.90;;
19861;SDS011;10093;48.148;8.542;2023-05-07T09:15:52;1.50;;;0.90;;
19861;SDS011;10093;48.148;8.542;2023-05-07T09:18:17;4.40;;;1.48;;
19861;SDS011;10093;48.148;8.542;2023-05-07T09:20:43;5.45;;;1.10;;
19861;SDS011;10093;48.148;8.542;2023-05-07T09:23:09;2.22;;;1.20;;
19861;SDS011;10093;48.148;8.542;2023-05-07T09:25:34;2.35;;;1.13;;
19861;SDS011;10093;48.148;8.542;2023-05-07T09:28:01;2.40;;;1.20;;
19861;SDS011;10093;48.148;8.542;2023-05-07T09:30:29;0.80;;;0.80;;
19861;SDS011;10093;48.148;8.542;2023-05-07T09:32:56;1.17;;;0.70;;
19861;SDS011;10093;48.148;8.542;2023-05-07T09:35:25;4.15;;;0.77;;
19861;SDS011;10093;48.148;8.542;2023-05-07T09:37:55;1.77;;;1.00;;
19861;SDS011;10093;48.148;8.542;2023-05-07T09:40:23;2.20;;;0.90;;
19861;SDS011;10093;48.148;8.542;2023-05-07T09:42:50;0.80;;;0.60;;
19861;SDS011;10093;48.148;8.542;2023-05-07T09:45:16;3.15;;;0.70;;
19861;SDS011;10093;48.148;8.542;2023-05-07T09:47:53;2.63;;;1.13;;
19861;SDS011;10093;48.148;8.542;2023-05-07T09:50:28;2.15;;;1.00;;
19861;SDS011;10093;48.148;8.542;2023-05-07T09:52:55;1.33;;;0.90;;
19861;SDS011;10093;48.148;8.542;2023-05-07T09:55:22;1.45;;;1.02;;
19861;SDS011;10093;48.148;8.542;2023-05-07T09:57:52;1.42;;;0.90;;
19861;SDS011;10093;48.148;8.542;2023-05-07T10:00:18;2.88;;;1.25;;
19861;SDS011;10093;48.148;8.542;2023-05-07T10:02:49;2.72;;;1.20;;
19861;SDS011;10093;48.148;8.542;2023-05-07T10:05:19;3.45;;;1.27;;
19861;SDS011;10093;48.148;8.542;2023-05-07T10:07:46;1.83;;;1.00;;
19861;SDS011;10093;48.148;8.542;2023-05-07T10:10:12;0.80;;;0.80;;
19861;SDS011;10093;48.148;8.542;2023-05-07T10:12:39;1.58;;;0.90;;
19861;SDS011;10093;48.148;8.542;2023-05-07T10:15:06;2.17;;;1.10;;
19861;SDS011;10093;48.148;8.542;2023-05-07T10:17:35;1.63;;;0.77;;
19861;SDS011;10093;48.148;8.542;2023-05-07T10:20:03;1.58;;;0.82;;
19861;SDS011;10093;48.148;8.542;2023-05-07T10:22:33;2.22;;;0.90;;
19861;SDS011;10093;48.148;8.542;2023-05-07T10:25:05;1.08;;;0.80;;
19861;SDS011;10093;48.148;8.542;2023-05-07T10:27:38;1.85;;;0.90;;
19861;SDS011;10093;48.148;8.542;2023-05-07T10:30:12;2.38;;;1.00;;
19861;SDS011;10093;48.148;8.542;2023-05-07T10:32:47;1.13;;;0.80;;
19861;SDS011;10093;48.148;8.542;2023-05-07T10:35:26;1.80;;;0.90;;
19861;SDS011;10093;48.148;8.542;2023-05-07T10:37:56;0.70;;;0.60;;
19861;SDS011;10093;48.148;8.542;2023-05-07T10:40:22;1.92;;;1.00;;
19861;SDS011;10093;48.148;8.542;2023-05-07T10:45:20;3.38;;;1.08;;
19861;SDS011;10093;48.148;8.542;2023-05-07T10:50:33;1.20;;;0.88;;
19861;SDS011;10093;48.148;8.542;2023-05-07T11:00:46;3.60;;;1.00;;
19861;SDS011;10093;48.148;8.542;2023-05-07T11:03:12;2.95;;;1.23;;
19861;SDS011;10093;48.148;8.542;2023-05-07T11:05:39;2.50;;;1.02;;
19861;SDS011;10093;48.148;8.542;2023-05-07T11:08:06;2.38;;;1.27;;
19861;SDS011;10093;48.148;8.542;2023-05-07T11:19:01;3.30;;;1.05;;
19861;SDS011;10093;48.148;8.542;2023-05-07T11:21:34;5.10;;;1.45;;
19861;SDS011;10093;48.148;8.542;2023-05-07T11:24:00;1.92;;;1.23;;
19861;SDS011;10093;48.148;8.542;2023-05-07T11:26:28;2.80;;;1.50;;
19861;SDS011;10093;48.148;8.542;2023-05-07T11:28:56;3.22;;;1.50;;
19861;SDS011;10093;48.148;8.542;2023-05-07T11:31:23;2.65;;;1.20;;
19861;SDS011;10093;48.148;8.542;2023-05-07T11:33:51;1.58;;;1.42;;
19861;SDS011;10093;48.148;8.542;2023-05-07T11:36:18;2.80;;;1.70;;
19861;SDS011;10093;48.148;8.542;2023-05-07T11:38:45;5.18;;;2.22;;
19861;SDS011;10093;48.148;8.542;2023-05-07T11:41:11;3.33;;;2.05;;
19861;SDS011;10093;48.148;8.542;2023-05-07T11:43:36;3.92;;;2.60;;
19861;SDS011;10093;48.148;8.542;2023-05-07T11:46:09;4.28;;;3.10;;
19861;SDS011;10093;48.148;8.542;2023-05-07T11:48:35;3.85;;;2.90;;
19861;SDS011;10093;48.148;8.542;2023-05-07T11:51:02;5.88;;;2.80;;
19861;SDS011;10093;48.148;8.542;2023-05-07T11:53:36;2.28;;;2.13;;
19861;SDS011;10093;48.148;8.542;2023-05-07T11:56:07;2.25;;;1.88;;
19861;SDS011;10093;48.148;8.542;2023-05-07T11:58:33;2.70;;;2.00;;
19861;SDS011;10093;48.148;8.542;2023-05-07T12:00:58;4.78;;;1.90;;
19861;SDS011;10093;48.148;8.542;2023-05-07T12:03:24;2.67;;;1.58;;
19861;SDS011;10093;48.148;8.542;2023-05-07T12:05:50;5.60;;;1.77;;
19861;SDS011;10093;48.148;8.542;2023-05-07T12:08:16;3.63;;;1.05;;
19861;SDS011;10093;48.148;8.542;2023-05-07T12:10:47;0.90;;;0.90;;
19861;SDS011;10093;48.148;8.542;2023-05-07T12:13:23;6.65;;;1.30;;
19861;SDS011;10093;48.148;8.542;2023-05-07T12:15:54;1.40;;;1.10;;
19861;SDS011;10093;48.148;8.542;2023-05-07T12:18:21;2.25;;;0.88;;
19861;SDS011;10093;48.148;8.542;2023-05-07T12:20:47;2.17;;;1.00;;
19861;SDS011;10093;48.148;8.542;2023-05-07T12:23:13;3.38;;;1.40;;
19861;SDS011;10093;48.148;8.542;2023-05-07T12:25:39;1.88;;;0.80;;
19861;SDS011;10093;48.148;8.542;2023-05-07T12:28:16;3.65;;;0.75;;
19861;SDS011;10093;48.148;8.542;2023-05-07T12:30:43;3.63;;;1.02;;
19861;SDS011;10093;48.148;8.542;2023-05-07T12:33:10;3.42;;;1.10;;
19861;SDS011;10093;48.148;8.542;2023-05-07T12:35:39;4.72;;;1.52;;
19861;SDS011;10093;48.148;8.542;2023-05-07T12:38:12;7.93;;;3.00;;
19861;SDS011;10093;48.148;8.542;2023-05-07T12:40:41;7.13;;;1.73;;
19861;SDS011;10093;48.148;8.542;2023-05-07T12:43:15;5.20;;;2.47;;
19861;SDS011;10093;48.148;8.542;2023-05-07T12:45:42;4.68;;;2.53;;
19861;SDS011;10093;48.148;8.542;2023-05-07T12:48:11;4.20;;;2.45;;
19861;SDS011;10093;48.148;8.542;2023-05-07T12:50:37;4.45;;;2.38;;
19861;SDS011;10093;48.148;8.542;2023-05-07T12:53:03;7.30;;;2.70;;
19861;SDS011;10093;48.148;8.542;2023-05-07T12:55:31;4.88;;;1.92;;
19861;SDS011;10093;48.148;8.542;2023-05-07T12:57:57;4.93;;;1.63;;
19861;SDS011;10093;48.148;8.542;2023-05-07T13:00:36;5.10;;;1.77;;
19861;SDS011;10093;48.148;8.542;2023-05-07T13:03:03;4.88;;;1.60;;
19861;SDS011;10093;48.148;8.542;2023-05-07T13:05:28;3.13;;;2.35;;
19861;SDS011;10093;48.148;8.542;2023-05-07T13:07:54;5.90;;;2.25;;
19861;SDS011;10093;48.148;8.542;2023-05-07T13:10:21;3.08;;;2.38;;
19861;SDS011;10093;48.148;8.542;2023-05-07T13:12:48;4.53;;;2.13;;
19861;SDS011;10093;48.148;8.542;2023-05-07T13:15:14;1.20;;;1.10;;
19861;SDS011;10093;48.148;8.542;2023-05-07T13:17:39;2.90;;;1.52;;
19861;SDS011;10093;48.148;8.542;2023-05-07T13:20:05;3.15;;;1.35;;
19861;SDS011;10093;48.148;8.542;2023-05-07T13:22:32;1.27;;;1.00;;
19861;SDS011;10093;48.148;8.542;2023-05-07T13:24:58;4.25;;;1.13;;
19861;SDS011;10093;48.148;8.542;2023-05-07T13:27:24;2.30;;;1.08;;
19861;SDS011;10093;48.148;8.542;2023-05-07T13:29:49;3.83;;;1.00;;
19861;SDS011;10093;48.148;8.542;2023-05-07T13:32:15;2.53;;;0.98;;
19861;SDS011;10093;48.148;8.542;2023-05-07T13:34:40;4.57;;;1.20;;
19861;SDS011;10093;48.148;8.542;2023-05-07T13:37:06;2.97;;;0.85;;
19861;SDS011;10093;48.148;8.542;2023-05-07T13:39:32;1.35;;;1.13;;
19861;SDS011;10093;48.148;8.542;2023-05-07T13:41:58;3.63;;;1.30;;
19861;SDS011;10093;48.148;8.542;2023-05-07T13:44:24;2.20;;;0.75;;
19861;SDS011;10093;48.148;8.542;2023-05-07T13:46:50;1.35;;;0.85;;
19861;SDS011;10093;48.148;8.542;2023-05-07T13:49:16;1.58;;;0.80;;
19861;SDS011;10093;48.148;8.542;2023-05-07T13:51:41;1.40;;;0.75;;
19861;SDS011;10093;48.148;8.542;2023-05-07T13:54:07;1.38;;;0.80;;
19861;SDS011;10093;48.148;8.542;2023-05-07T13:56:33;3.47;;;0.80;;
19861;SDS011;10093;48.148;8.542;2023-05-07T13:58:59;3.95;;;0.80;;
19861;SDS011;10093;48.148;8.542;2023-05-07T14:01:24;1.83;;;0.80;;
19861;SDS011;10093;48.148;8.542;2023-05-07T14:03:50;4.35;;;1.05;;
19861;SDS011;10093;48.148;8.542;2023-05-07T14:06:16;2.00;;;0.80;;
19861;SDS011;10093;48.148;8.542;2023-05-07T14:08:41;2.65;;;0.93;;
19861;SDS011;10093;48.148;8.542;2023-05-07T14:11:07;1.67;;;0.80;;
19861;SDS011;10093;48.148;8.542;2023-05-07T14:13:33;1.08;;;0.98;;
19861;SDS011;10093;48.148;8.542;2023-05-07T14:15:59;1.25;;;0.73;;
19861;SDS011;10093;48.148;8.542;2023-05-07T14:18:25;3.70;;;0.80;;
19861;SDS011;10093;48.148;8.542;2023-05-07T14:20:51;0.80;;;0.80;;
19861;SDS011;10093;48.148;8.542;2023-05-07T14:23:17;3.58;;;0.70;;
19861;SDS011;10093;48.148;8.542;2023-05-07T14:25:44;2.05;;;0.70;;
19861;SDS011;10093;48.148;8.542;2023-05-07T14:28:12;4.38;;;0.70;;
19861;SDS011;10093;48.148;8.542;2023-05-07T14:30:38;0.60;;;0.60;;
19861;SDS011;10093;48.148;8.542;2023-05-07T14:33:04;1.95;;;0.70;;
19861;SDS011;10093;48.148;8.542;2023-05-07T14:35:30;0.50;;;0.50;;
19861;SDS011;10093;48.148;8.542;2023-05-07T14:37:55;0.80;;;0.70;;
19861;SDS011;10093;48.148;8.542;2023-05-07T14:40:21;0.70;;;0.70;;
19861;SDS011;10093;48.148;8.542;2023-05-07T14:42:46;2.88;;;0.73;;
19861;SDS011;10093;48.148;8.542;2023-05-07T14:45:12;1.17;;;0.68;;
19861;SDS011;10093;48.148;8.542;2023-05-07T14:47:38;1.25;;;0.55;;
19861;SDS011;10093;48.148;8.542;2023-05-07T14:50:04;1.38;;;0.77;;
19861;SDS011;10093;48.148;8.542;2023-05-07T14:52:29;1.10;;;0.65;;
19861;SDS011;10093;48.148;8.542;2023-05-07T14:54:55;2.00;;;0.70;;
19861;SDS011;10093;48.148;8.542;2023-05-07T14:57:20;1.38;;;0.77;;
19861;SDS011;10093;48.148;8.542;2023-05-07T14:59:46;3.15;;;1.08;;
19861;SDS011;10093;48.148;8.542;2023-05-07T15:02:12;1.77;;;0.98;;
19861;SDS011;10093;48.148;8.542;2023-05-07T15:04:38;3.95;;;0.70;;
19861;SDS011;10093;48.148;8.542;2023-05-07T15:07:10;1.15;;;0.60;;